Time;durP1;ratioP1;P1;durP2;ratioP2;P2;SDS_P1;SDS_P2;PMS_P1;PMS_P2;Temp;Humidity;BMP_temperature;BMP_pressure;BME280_temperature;BME280_humidity;BME280_pressure;Samples;Min_cycle;Max_cycle;Signal;HPM_P1;HPM_P2
2022/04/05 00:00:18;;;;;;;488.58;321.30;;;;;;;7.17;63.67;99317.19;684113;28;22392;-69
2022/04/05 00:00:39;;;;;;;487.77;318.42;;;;;;;7.19;63.53;99304.44;683970;28;22431;-70
2022/04/05 00:01:01;;;;;;;487.45;315.23;;;;;;;7.25;63.39;99304.69;684488;28;21525;-70
2022/04/05 00:01:23;;;;;;;487.95;320.35;;;;;;;7.22;63.18;99297.84;683361;28;46299;-70
2022/04/05 00:01:44;;;;;;;489.15;322.90;;;;;;;7.21;63.31;99297.00;682722;28;45314;-69
2022/04/05 00:02:05;;;;;;;489.23;319.42;;;;;;;7.26;63.22;99300.97;684100;28;22174;-69
2022/04/05 00:02:27;;;;;;;489.45;321.85;;;;;;;7.23;63.34;99299.50;684250;28;21534;-69
2022/04/05 00:02:48;;;;;;;488.83;322.30;;;;;;;7.22;63.76;99298.69;683219;28;46160;-70
2022/04/05 00:03:09;;;;;;;489.98;322.85;;;;;;;7.24;63.61;99306.56;684133;28;22346;-69
2022/04/05 00:03:30;;;;;;;488.60;320.10;;;;;;;7.22;63.84;99297.84;684291;28;22400;-69
2022/04/05 00:03:52;;;;;;;487.75;319.10;;;;;;;7.20;63.85;99299.88;684330;28;24144;-69
2022/04/05 00:04:14;;;;;;;488.77;320.48;;;;;;;7.22;63.72;99298.69;683636;28;46278;-69
2022/04/05 00:04:35;;;;;;;488.70;324.15;;;;;;;7.27;63.56;99308.00;683304;28;46291;-69
2022/04/05 00:04:57;;;;;;;489.63;331.38;;;;;;;7.27;63.57;99308.00;684333;28;22420;-69
2022/04/05 00:05:18;;;;;;;489.35;330.98;;;;;;;7.26;63.36;99300.97;683410;28;46334;-69
2022/04/05 00:05:39;;;;;;;490.15;335.33;;;;;;;7.26;63.81;99295.59;684464;28;23389;-68
2022/04/05 00:06:03;;;;;;;488.60;331.90;;;;;;;7.23;64.05;99296.81;684442;28;23176;-69
2022/04/05 00:06:24;;;;;;;488.90;329.40;;;;;;;7.24;63.82;99297.63;682910;28;60635;-69
2022/04/05 00:06:45;;;;;;;487.23;321.85;;;;;;;7.26;63.57;99304.50;683489;28;23433;-69
2022/04/05 00:07:06;;;;;;;486.65;318.55;;;;;;;7.28;63.52;99301.63;684285;28;22225;-69
2022/04/05 00:07:28;;;;;;;487.50;323.13;;;;;;;7.24;63.59;99301.19;688582;28;43420;-69
2022/04/05 00:07:50;;;;;;;485.10;317.30;;;;;;;7.24;63.89;99297.63;689099;28;22431;-69
2022/04/05 00:08:11;;;;;;;485.45;316.08;;;;;;;7.28;63.56;99298.94;688431;28;45274;-69
2022/04/05 00:08:32;;;;;;;485.23;315.63;;;;;;;7.26;63.42;99307.19;689510;28;22216;-69
2022/04/05 00:08:53;;;;;;;486.90;318.43;;;;;;;7.31;63.76;99302.06;689420;28;24879;-69
2022/04/05 00:09:15;;;;;;;487.27;318.50;;;;;;;7.31;63.91;99290.50;687514;28;46612;-70
2022/04/05 00:09:36;;;;;;;491.90;325.48;;;;;;;7.28;64.24;99299.75;683794;28;23238;-69
2022/04/05 00:09:57;;;;;;;492.00;325.10;;;;;;;7.28;64.21;99315.06;683968;28;21503;-70
2022/04/05 00:10:19;;;;;;;490.20;326.95;;;;;;;7.34;63.68;99296.31;684249;28;1816;-69
2022/04/05 00:10:41;;;;;;;487.48;316.33;;;;;;;7.34;63.37;99295.50;684007;28;22367;-69
2022/04/05 00:11:02;;;;;;;490.27;327.35;;;;;;;7.33;63.47;99302.69;683283;28;44088;-69
2022/04/05 00:11:23;;;;;;;489.73;333.58;;;;;;;7.33;63.33;99293.81;683935;28;22457;-69
2022/04/05 00:11:44;;;;;;;490.67;335.92;;;;;;;7.32;63.50;99292.13;683268;28;22382;-69
2022/04/05 00:12:07;;;;;;;491.23;338.80;;;;;;;7.28;63.60;99283.66;684276;28;21494;-69
2022/04/05 00:12:28;;;;;;;491.50;334.77;;;;;;;7.30;63.51;99291.50;684822;28;5374;-69
2022/04/05 00:12:49;;;;;;;487.88;320.98;;;;;;;7.31;63.77;99295.88;684412;28;22339;-69
2022/04/05 00:13:10;;;;;;;489.20;318.38;;;;;;;7.31;63.68;99295.88;683832;28;20845;-69
2022/04/05 00:13:32;;;;;;;489.83;324.15;;;;;;;7.32;63.98;99294.81;683814;28;23408;-69
2022/04/05 00:13:53;;;;;;;489.25;327.02;;;;;;;7.31;63.94;99290.50;683498;28;45253;-69
2022/04/05 00:14:14;;;;;;;489.70;330.48;;;;;;;7.30;64.14;99303.06;684306;28;21551;-69
2022/04/05 00:14:36;;;;;;;488.75;323.27;;;;;;;7.24;63.98;99279.69;683270;28;46477;-69
2022/04/05 00:14:58;;;;;;;488.27;321.88;;;;;;;7.31;63.99;99310.13;684323;28;22385;-69
2022/04/05 00:15:19;;;;;;;490.05;325.80;;;;;;;7.34;63.75;99290.13;683390;28;45271;-69
2022/04/05 00:15:40;;;;;;;490.58;328.95;;;;;;;7.32;63.58;99293.00;683240;28;21526;-69
2022/04/05 00:16:01;;;;;;;490.83;329.45;;;;;;;7.32;63.72;99302.88;683288;28;46300;-69
2022/04/05 00:16:23;;;;;;;488.25;319.50;;;;;;;7.34;63.57;99295.50;688635;28;20720;-69
2022/04/05 00:16:44;;;;;;;489.83;326.05;;;;;;;7.34;63.30;99301.69;687245;28;46298;-69
2022/04/05 00:17:05;;;;;;;491.23;329.58;;;;;;;7.36;63.29;99299.63;689451;28;23437;-69
2022/04/05 00:17:26;;;;;;;489.17;321.38;;;;;;;7.37;63.17;99303.16;689037;28;23609;-69
2022/04/05 00:17:48;;;;;;;487.70;316.55;;;;;;;7.37;63.07;99293.25;689415;28;23473;-69
2022/04/05 00:18:10;;;;;;;488.95;325.10;;;;;;;7.33;63.10;99289.25;687838;28;45276;-69
2022/04/05 00:18:31;;;;;;;490.35;329.15;;;;;;;7.38;62.99;99302.13;683940;28;22415;-69
2022/04/05 00:18:54;;;;;;;490.65;333.95;;;;;;;7.36;63.41;99312.22;685047;28;1894;-69
2022/04/05 00:19:15;;;;;;;491.65;338.50;;;;;;;7.34;63.46;99314.28;682578;28;46608;-69
2022/04/05 00:19:36;;;;;;;493.75;342.52;;;;;;;7.28;63.92;99315.06;683549;28;22377;-69
2022/04/05 00:19:58;;;;;;;492.13;338.13;;;;;;;7.22;63.94;99309.44;684334;28;21473;-69
2022/04/05 00:20:20;;;;;;;488.88;322.02;;;;;;;7.28;64.45;99317.72;683584;28;44350;-69
2022/04/05 00:20:41;;;;;;;488.50;322.35;;;;;;;7.26;64.16;99319.75;683501;28;47178;-69
2022/04/05 00:21:03;;;;;;;488.33;319.67;;;;;;;7.24;64.35;99317.28;684170;28;22407;-69
2022/04/05 00:21:24;;;;;;;488.85;322.02;;;;;;;7.22;64.22;99320.16;682456;28;69271;-69
2022/04/05 00:21:48;;;;;;;489.73;323.17;;;;;;;7.22;64.40;99312.09;683510;28;22372;-69
2022/04/05 00:22:09;;;;;;;488.55;320.15;;;;;;;7.24;64.65;99319.97;682511;28;69714;-69
2022/04/05 00:22:30;;;;;;;487.92;320.60;;;;;;;7.21;64.25;99326.56;684225;28;22407;-69
2022/04/05 00:22:51;;;;;;;488.85;320.33;;;;;;;7.24;64.25;99332.56;683428;28;46386;-69
2022/04/05 00:23:14;;;;;;;490.98;325.83;;;;;;;7.22;64.16;99324.69;684087;28;21518;-69
2022/04/05 00:23:35;;;;;;;490.80;329.02;;;;;;;7.21;64.32;99329.22;683078;28;44394;-69
2022/04/05 00:23:56;;;;;;;489.33;328.10;;;;;;;7.26;64.40;99325.97;683354;28;44335;-69
2022/04/05 00:24:18;;;;;;;490.35;337.08;;;;;;;7.27;64.01;99332.16;684371;28;18365;-69
2022/04/05 00:24:39;;;;;;;490.00;340.45;;;;;;;7.27;64.05;99326.81;683685;28;45258;-69
2022/04/05 00:25:00;;;;;;;490.00;342.40;;;;;;;7.24;63.97;99333.41;684399;28;21537;-69
2022/04/05 00:25:22;;;;;;;489.67;341.88;;;;;;;7.24;64.30;99329.88;684161;28;23345;-69
2022/04/05 00:25:44;;;;;;;487.75;331.17;;;;;;;7.24;64.22;99322.66;683844;28;10831;-69
2022/04/05 00:26:05;;;;;;;486.98;323.40;;;;;;;7.24;64.09;99319.97;684379;28;22213;-69
2022/04/05 00:26:26;;;;;;;485.45;323.13;;;;;;;7.27;63.99;99316.06;683524;28;23539;-69
2022/04/05 00:26:48;;;;;;;487.85;329.98;;;;;;;7.27;63.63;99324.13;682464;28;44356;-69
2022/04/05 00:27:09;;;;;;;486.70;330.35;;;;;;;7.30;63.59;99329.94;683547;28;46261;-69
2022/04/05 00:27:30;;;;;;;490.17;337.25;;;;;;;7.28;63.70;99329.28;683708;28;21546;-69
2022/04/05 00:27:52;;;;;;;490.20;342.13;;;;;;;7.27;63.79;99314.19;683574;28;23497;-69
2022/04/05 00:28:14;;;;;;;491.05;341.02;;;;;;;7.22;63.91;99312.09;683282;28;44156;-69
2022/04/05 00:28:35;;;;;;;491.50;332.17;;;;;;;7.22;63.90;99312.09;682535;28;46399;-69
2022/04/05 00:28:57;;;;;;;488.65;324.15;;;;;;;7.25;63.94;99315.44;683956;28;22218;-69
2022/04/05 00:29:19;;;;;;;489.80;328.13;;;;;;;7.24;64.00;99317.28;684056;28;22239;-69
2022/04/05 00:29:41;;;;;;;491.92;326.58;;;;;;;7.26;63.77;99323.28;682530;28;46436;-69
2022/04/05 00:30:03;;;;;;;489.92;324.75;;;;;;;7.23;64.63;99326.34;681691;28;67471;-68
2022/04/05 00:30:24;;;;;;;489.90;326.88;;;;;;;7.22;64.24;99319.31;683351;28;44365;-69
2022/04/05 00:30:45;;;;;;;490.40;330.58;;;;;;;7.20;64.19;99319.50;684389;28;21309;-69
2022/04/05 00:31:07;;;;;;;490.35;333.73;;;;;;;7.20;64.05;99321.38;684180;28;23503;-69
2022/04/05 00:31:28;;;;;;;490.60;329.17;;;;;;;7.21;63.94;99315.81;683581;28;46664;-69
2022/04/05 00:31:50;;;;;;;489.13;327.52;;;;;;;7.20;64.04;99318.69;682868;28;22518;-69
2022/04/05 00:32:11;;;;;;;488.90;325.65;;;;;;;7.19;64.17;99320.53;684245;28;23507;-69
2022/04/05 00:32:33;;;;;;;491.10;335.05;;;;;;;7.18;64.38;99315.38;684237;28;22411;-69
2022/04/05 00:32:54;;;;;;;490.95;341.50;;;;;;;7.18;64.00;99318.88;683280;28;46306;-69
2022/04/05 00:33:15;;;;;;;492.10;334.65;;;;;;;7.20;63.89;99321.38;684050;28;22393;-69
2022/04/05 00:33:36;;;;;;;489.65;321.13;;;;;;;7.21;63.75;99315.81;683464;28;46301;-69
2022/04/05 00:33:58;;;;;;;487.23;320.05;;;;;;;7.19;63.69;99317.88;684200;28;22355;-69
2022/04/05 00:34:24;;;;;;;490.92;332.20;;;;;;;7.17;64.08;99314.50;681785;28;64543;-69
2022/04/05 00:34:45;;;;;;;490.77;337.15;;;;;;;7.17;64.00;99314.50;681134;28;113201;-69
2022/04/05 00:35:08;;;;;;;489.88;337.83;;;;;;;7.15;64.28;99311.19;684303;28;22359;-69
2022/04/05 00:35:30;;;;;;;491.17;331.90;;;;;;;7.16;64.47;99312.00;682639;28;47441;-69
2022/04/05 00:35:51;;;;;;;488.65;324.88;;;;;;;7.16;64.44;99317.38;683593;28;45242;-69
2022/04/05 00:36:13;;;;;;;488.80;325.75;;;;;;;7.15;64.10;99310.38;683279;28;46306;-69
2022/04/05 00:36:34;;;;;;;493.02;336.88;;;;;;;7.13;64.37;99324.00;682715;28;45271;-69
2022/04/05 00:36:57;;;;;;;492.05;342.05;;;;;;;7.14;64.32;99316.75;683966;28;22418;-69
2022/04/05 00:37:18;;;;;;;493.55;348.17;;;;;;;7.14;64.40;99322.13;683536;28;44426;-69
2022/04/05 00:37:39;;;;;;;491.80;334.80;;;;;;;7.14;64.36;99320.25;684195;28;22341;-69
2022/04/05 00:38:00;;;;;;;487.98;324.50;;;;;;;7.13;64.31;99315.09;683739;28;44377;-69
2022/04/05 00:38:22;;;;;;;488.67;324.27;;;;;;;7.14;64.15;99319.44;683958;28;22380;-69
2022/04/05 00:38:43;;;;;;;489.90;325.63;;;;;;;7.13;64.38;99321.31;683474;28;44389;-69
2022/04/05 00:39:04;;;;;;;490.92;336.58;;;;;;;7.14;64.29;99319.44;684347;28;22413;-69
2022/04/05 00:39:26;;;;;;;491.20;338.83;;;;;;;7.14;64.25;99320.25;684076;28;23436;-69
2022/04/05 00:39:50;;;;;;;494.67;341.55;;;;;;;7.16;64.04;99326.28;682972;28;44383;-69
2022/04/05 00:40:12;;;;;;;491.98;334.33;;;;;;;7.17;64.02;99317.19;687427;28;67897;-69
2022/04/05 00:40:33;;;;;;;490.20;328.77;;;;;;;7.19;63.94;99317.88;688337;28;46206;-69
2022/04/05 00:40:55;;;;;;;488.45;323.27;;;;;;;7.17;64.30;99317.19;688515;28;46407;-69
2022/04/05 00:41:16;;;;;;;490.42;325.55;;;;;;;7.16;64.17;99315.56;688470;28;46259;-69
2022/04/05 00:41:37;;;;;;;491.50;328.75;;;;;;;7.19;64.01;99331.28;688487;28;22478;-71
2022/04/05 00:41:58;;;;;;;491.30;328.95;;;;;;;7.18;64.38;99320.72;687410;28;23469;-70
2022/04/05 00:42:21;;;;;;;492.23;332.95;;;;;;;7.18;64.51;99321.56;683774;28;22435;-69
2022/04/05 00:42:42;;;;;;;489.50;332.17;;;;;;;7.17;64.54;99325.25;682524;28;67500;-69
2022/04/05 00:43:05;;;;;;;490.48;333.73;;;;;;;7.17;64.78;99319.06;683934;28;21527;-69
2022/04/05 00:43:26;;;;;;;490.60;337.55;;;;;;;7.17;64.81;99324.44;682371;28;67364;-69
2022/04/05 00:43:49;;;;;;;490.75;344.35;;;;;;;7.16;64.55;99320.06;683754;28;22393;-70
2022/04/05 00:44:10;;;;;;;491.95;343.77;;;;;;;7.16;64.82;99312.00;682579;28;69419;-70
2022/04/05 00:44:31;;;;;;;489.35;331.77;;;;;;;7.16;64.71;99315.56;684100;28;21512;-69
2022/04/05 00:44:52;;;;;;;488.13;327.60;;;;;;;7.14;64.66;99322.94;684135;28;22370;-69
2022/04/05 00:45:16;;;;;;;489.10;331.73;;;;;;;7.15;64.46;99324.63;684219;28;22350;-69
2022/04/05 00:45:37;;;;;;;488.48;326.00;;;;;;;7.16;64.27;99317.38;681811;28;92090;-70
2022/04/05 00:45:58;;;;;;;489.58;334.25;;;;;;;7.19;64.40;99319.69;684198;28;21529;-69
2022/04/05 00:46:19;;;;;;;492.98;344.65;;;;;;;7.20;64.11;99318.69;684061;28;23265;-69
2022/04/05 00:46:41;;;;;;;493.30;348.35;;;;;;;7.21;64.03;99306.94;658684;28;23447;-69
2022/04/05 00:47:17;;;;;;;493.15;342.63;;;;;;;7.26;63.49;99325.13;684225;28;46317;-69
2022/04/05 00:47:39;;;;;;;489.00;331.73;;;;;;;7.29;63.26;99308.63;681965;28;137644;-69
2022/04/05 00:48:03;;;;;;;489.67;331.83;;;;;;;7.31;63.15;99317.34;684279;28;46341;-69
2022/04/05 00:48:30;;;;;;;491.45;342.00;;;;;;;7.30;63.46;99313.81;683635;28;93208;-69
2022/04/05 00:48:53;;;;;;;491.48;345.63;;;;;;;7.32;63.39;99305.56;682724;28;138052;-69
2022/04/05 00:49:16;;;;;;;491.98;345.25;;;;;;;7.31;63.50;99317.34;686180;28;44450;-69
2022/04/05 00:49:38;;;;;;;489.90;328.52;;;;;;;7.33;63.34;99307.25;683973;28;93251;-69
2022/04/05 00:50:00;;;;;;;490.95;328.15;;;;;;;7.32;63.28;99305.56;686033;28;21955;-69
2022/04/05 00:50:23;;;;;;;490.13;331.98;;;;;;;7.38;62.70;99316.41;681865;28;68901;-69
2022/04/05 00:50:44;;;;;;;489.65;328.30;;;;;;;7.43;62.59;99305.09;681246;28;69650;-69
2022/04/05 00:51:05;;;;;;;492.75;341.02;;;;;;;7.43;62.44;99302.41;680878;29;22370;-69
2022/04/05 00:51:28;;;;;;;492.27;336.95;;;;;;;7.43;62.51;99317.66;680867;28;22367;-69
2022/04/05 00:51:49;;;;;;;491.13;330.38;;;;;;;7.42;62.29;99308.78;679498;28;69185;-69
2022/04/05 00:52:11;;;;;;;489.67;329.05;;;;;;;7.43;62.36;99305.09;684702;28;23488;-69
2022/04/05 00:52:32;;;;;;;493.15;341.38;;;;;;;7.44;62.54;99317.47;685621;28;44766;-69
2022/04/05 00:52:54;;;;;;;493.30;347.60;;;;;;;7.47;62.53;99322.47;686575;28;23476;-69
2022/04/05 00:53:15;;;;;;;493.95;344.83;;;;;;;7.50;62.02;99310.50;685666;28;44534;-69
2022/04/05 00:53:37;;;;;;;492.08;343.27;;;;;;;7.51;61.88;99313.00;687202;28;22339;-69
2022/04/05 00:54:03;;;;;;;493.30;348.25;;;;;;;7.48;62.54;99318.75;686157;28;46278;-69
2022/04/05 00:54:25;;;;;;;492.13;339.48;;;;;;;7.46;62.63;99315.44;682609;28;136178;-68
2022/04/05 00:54:48;;;;;;;490.17;329.20;;;;;;;7.44;62.91;99314.78;686264;28;44384;-69
2022/04/05 00:55:10;;;;;;;489.65;327.35;;;;;;;7.42;63.11;99311.47;685074;28;69122;-69
2022/04/05 00:55:31;;;;;;;489.88;329.45;;;;;;;7.44;63.40;99316.66;686075;28;45238;-69
2022/04/05 00:55:54;;;;;;;490.88;331.48;;;;;;;7.39;63.52;99309.97;686793;28;22384;-69
2022/04/05 00:56:17;;;;;;;490.02;333.85;;;;;;;7.38;63.53;99315.53;685097;28;70183;-69
2022/04/05 00:56:39;;;;;;;490.38;333.17;;;;;;;7.40;63.74;99318.91;684555;28;69433;-69
2022/04/05 00:57:00;;;;;;;490.42;331.20;;;;;;;7.35;63.78;99315.94;685829;28;44361;-69
2022/04/05 00:57:22;;;;;;;487.48;326.38;;;;;;;7.37;63.39;99311.22;686590;28;23651;-69
2022/04/05 00:57:45;;;;;;;490.80;336.23;;;;;;;7.42;63.13;99314.16;686057;28;45296;-69
2022/04/05 00:58:07;;;;;;;490.42;331.70;;;;;;;7.44;63.15;99316.66;685050;28;69437;-69
2022/04/05 00:58:28;;;;;;;490.15;331.02;;;;;;;7.45;63.05;99321.00;685971;28;46305;-69
2022/04/05 00:58:52;;;;;;;491.83;341.85;;;;;;;7.45;62.96;99321.00;686789;28;22383;-69
2022/04/05 00:59:15;;;;;;;493.77;347.95;;;;;;;7.47;62.81;99322.47;684259;28;92265;-69
2022/04/05 00:59:41;;;;;;;495.65;346.17;;;;;;;7.46;63.02;99320.81;684595;28;67236;-69
2022/04/05 01:00:07;;;;;;;492.25;330.70;;;;;;;7.46;62.92;99319.97;682181;28;137945;-69
2022/04/05 01:00:29;;;;;;;489.38;326.73;;;;;;;7.44;63.45;99320.16;682285;28;159394;-69
2022/04/05 01:00:52;;;;;;;489.15;326.92;;;;;;;7.37;63.55;99317.41;686312;28;44391;-69
2022/04/05 01:01:15;;;;;;;490.88;328.58;;;;;;;7.40;64.04;99318.91;685113;28;67510;-69
2022/04/05 01:01:36;;;;;;;491.20;337.45;;;;;;;7.40;63.79;99325.09;684601;28;69400;-69
2022/04/05 01:01:57;;;;;;;491.55;340.23;;;;;;;7.42;63.76;99322.22;686888;28;23426;-69
2022/04/05 01:02:20;;;;;;;489.35;335.48;;;;;;;7.39;63.86;99322.59;685629;28;20785;-69
2022/04/05 01:02:43;;;;;;;488.38;330.00;;;;;;;7.36;64.20;99323.78;683279;28;92159;-69
2022/04/05 01:03:04;;;;;;;490.05;330.45;;;;;;;7.35;64.36;99321.31;684375;28;45211;-69
2022/04/05 01:03:26;;;;;;;490.27;328.97;;;;;;;7.32;64.59;99317.16;685212;28;23890;-69
2022/04/05 01:03:51;;;;;;;487.63;327.20;;;;;;;7.36;64.37;99322.97;685364;28;43953;-69
2022/04/05 01:04:12;;;;;;;491.15;333.38;;;;;;;7.31;64.49;99315.50;684170;28;114844;-69
2022/04/05 01:04:34;;;;;;;491.77;335.90;;;;;;;7.35;64.52;99321.31;688219;28;45203;-69
2022/04/05 01:04:55;;;;;;;491.42;337.55;;;;;;;7.35;64.48;99322.16;689473;28;21313;-68
2022/04/05 01:05:18;;;;;;;489.63;329.48;;;;;;;7.34;64.49;99322.34;689165;28;22384;-69
2022/04/05 01:05:43;;;;;;;490.02;328.90;;;;;;;7.29;64.47;99322.06;687923;28;58269;-69
2022/04/05 01:06:06;;;;;;;489.23;329.40;;;;;;;7.32;64.45;99321.69;688167;28;22230;-69
2022/04/05 01:06:31;;;;;;;489.60;331.65;;;;;;;7.34;64.04;99331.22;685042;28;69404;-69
2022/04/05 01:06:54;;;;;;;493.10;339.75;;;;;;;7.30;63.72;99316.50;657860;28;139420;-69
2022/04/05 01:07:17;;;;;;;493.00;337.92;;;;;;;7.37;63.78;99324.66;686091;28;69303;-70
2022/04/05 01:07:40;;;;;;;490.73;331.65;;;;;;;7.37;63.64;99320.09;687230;28;46277;-69
2022/04/05 01:08:03;;;;;;;488.55;329.85;;;;;;;7.44;63.87;99330.91;686853;28;68322;-69
2022/04/05 01:08:24;;;;;;;490.85;340.33;;;;;;;7.43;63.88;99325.72;686385;28;66878;-69
2022/04/05 01:08:46;;;;;;;491.73;343.70;;;;;;;7.39;63.84;99319.91;687781;28;23411;-69
2022/04/05 01:09:08;;;;;;;488.40;328.50;;;;;;;7.40;64.33;99335.00;686056;28;46326;-69
2022/04/05 01:09:29;;;;;;;489.15;328.50;;;;;;;7.39;64.26;99334.16;685510;28;46625;-69
2022/04/05 01:09:53;;;;;;;491.25;335.98;;;;;;;7.37;64.64;99338.09;687169;28;1555;-69
2022/04/05 01:10:15;;;;;;;489.70;330.25;;;;;;;7.30;64.22;99331.78;683270;28;115078;-69
2022/04/05 01:10:37;;;;;;;489.20;327.98;;;;;;;7.35;64.64;99337.41;686119;28;22405;-69
2022/04/05 01:10:59;;;;;;;489.27;330.65;;;;;;;7.32;64.77;99327.91;685950;28;44368;-69
2022/04/05 01:11:21;;;;;;;489.77;329.65;;;;;;;7.32;64.69;99332.44;685729;28;46406;-69
2022/04/05 01:11:42;;;;;;;488.48;328.92;;;;;;;7.31;64.95;99333.47;684951;28;46571;-69
2022/04/05 01:12:05;;;;;;;488.30;329.23;;;;;;;7.31;65.04;99336.16;686588;28;22412;-69
2022/04/05 01:12:27;;;;;;;489.13;328.50;;;;;;;7.30;64.82;99339.84;685152;28;69405;-69
2022/04/05 01:12:49;;;;;;;488.90;327.13;;;;;;;7.29;64.58;99330.13;686094;28;45112;-69
2022/04/05 01:13:10;;;;;;;490.25;327.13;;;;;;;7.34;64.28;99330.41;685746;28;46345;-69
2022/04/05 01:13:32;;;;;;;490.73;329.52;;;;;;;7.32;64.29;99329.75;686665;28;21470;-69
2022/04/05 01:13:53;;;;;;;491.88;339.73;;;;;;;7.32;64.43;99330.59;686896;28;22405;-69
2022/04/05 01:14:15;;;;;;;492.98;344.92;;;;;;;7.32;64.58;99329.75;686868;28;22423;-69
2022/04/05 01:14:37;;;;;;;492.15;344.02;;;;;;;7.31;64.39;99328.91;685697;28;46032;-69
2022/04/05 01:14:59;;;;;;;492.95;348.63;;;;;;;7.31;64.44;99333.47;686299;28;19608;-69
2022/04/05 01:15:20;;;;;;;490.77;339.13;;;;;;;7.30;64.42;99334.47;685779;28;45386;-69
2022/04/05 01:15:41;;;;;;;489.80;332.02;;;;;;;7.30;64.35;99329.94;685557;28;44370;-69
2022/04/05 01:16:04;;;;;;;491.83;334.05;;;;;;;7.30;64.49;99334.47;686719;28;20886;-69
2022/04/05 01:16:25;;;;;;;488.00;327.42;;;;;;;7.28;64.33;99326.63;685770;28;44389;-69
2022/04/05 01:16:47;;;;;;;492.30;343.55;;;;;;;7.29;64.72;99330.13;685053;28;46340;-69
2022/04/05 01:17:08;;;;;;;492.30;347.50;;;;;;;7.29;64.57;99332.81;686204;28;22370;-69
2022/04/05 01:17:31;;;;;;;489.35;336.48;;;;;;;7.26;64.60;99320.59;686626;28;22380;-69
2022/04/05 01:17:53;;;;;;;488.75;329.52;;;;;;;7.26;64.25;99322.44;684983;28;69439;-69
2022/04/05 01:18:14;;;;;;;489.65;328.67;;;;;;;7.29;64.20;99324.75;685587;28;46412;-69
2022/04/05 01:18:36;;;;;;;489.25;329.55;;;;;;;7.29;64.01;99327.44;686664;28;22398;-69
2022/04/05 01:18:57;;;;;;;489.67;330.95;;;;;;;7.27;64.04;99316.88;685972;28;45243;-69
2022/04/05 01:19:18;;;;;;;491.02;339.27;;;;;;;7.29;64.13;99324.75;686363;28;22391;-69
2022/04/05 01:19:39;;;;;;;495.48;349.85;;;;;;;7.28;64.01;99326.63;685958;28;21323;-69
2022/04/05 01:20:02;;;;;;;493.88;347.10;;;;;;;7.24;64.00;99319.13;685624;28;44366;-69
2022/04/05 01:20:23;;;;;;;489.77;334.67;;;;;;;7.27;64.06;99330.31;686237;28;46320;-69
2022/04/05 01:20:44;;;;;;;489.25;330.83;;;;;;;7.27;63.95;99332.16;686751;28;24388;-69
2022/04/05 01:21:06;;;;;;;489.00;335.35;;;;;;;7.25;64.37;99323.47;686809;28;22436;-69
2022/04/05 01:21:28;;;;;;;488.38;332.48;;;;;;;7.27;64.37;99332.16;684941;28;46290;-69
2022/04/05 01:21:50;;;;;;;489.08;331.58;;;;;;;7.28;64.61;99333.84;684187;28;67218;-69
2022/04/05 01:22:11;;;;;;;488.08;329.33;;;;;;;7.27;64.26;99335.69;686048;28;46372;-69
2022/04/05 01:22:32;;;;;;;489.55;332.42;;;;;;;7.28;64.12;99336.53;686955;28;22402;-69
2022/04/05 01:22:54;;;;;;;489.02;333.15;;;;;;;7.27;64.37;99327.63;686892;28;20792;-69
2022/04/05 01:23:21;;;;;;;491.83;344.35;;;;;;;7.27;63.90;99335.69;686311;28;22406;-69
2022/04/05 01:24:03;;;;;;;492.25;355.98;;;;;;;7.24;63.69;99325.34;682625;28;137461;-69
2022/04/05 01:24:24;;;;;;;490.42;334.63;;;;;;;7.30;63.21;99334.47;682065;28;138444;-69
2022/04/05 01:24:46;;;;;;;488.33;326.90;;;;;;;7.32;63.29;99340.47;686140;28;22352;-69
2022/04/05 01:25:12;;;;;;;487.92;330.40;;;;;;;7.30;63.27;99332.63;685494;28;46434;-69
2022/04/05 01:25:33;;;;;;;488.65;330.00;;;;;;;7.30;63.41;99332.63;682796;28;138170;-69
2022/04/05 01:25:56;;;;;;;488.00;331.02;;;;;;;7.28;63.38;99336.53;686710;28;22234;-69
2022/04/05 01:26:18;;;;;;;489.87;334.80;;;;;;;7.32;63.51;99337.78;685563;28;68747;-69
2022/04/05 01:26:40;;;;;;;491.05;343.60;;;;;;;7.31;63.50;99345.03;685675;28;46260;-69
2022/04/05 01:27:04;;;;;;;491.63;348.00;;;;;;;7.28;63.56;99331.97;684709;28;69197;-69
2022/04/05 01:27:27;;;;;;;492.90;352.27;;;;;;;7.31;63.41;99336.97;685997;28;69260;-68
2022/04/05 01:27:50;;;;;;;488.45;338.50;;;;;;;7.31;63.73;99331.59;685143;28;92068;-69
2022/04/05 01:28:11;;;;;;;489.80;334.88;;;;;;;7.32;63.83;99327.06;686002;28;69319;-69
2022/04/05 01:28:32;;;;;;;489.52;336.83;;;;;;;7.33;63.65;99331.41;687710;28;22322;-69
2022/04/05 01:28:54;;;;;;;487.42;334.58;;;;;;;7.32;63.27;99327.06;687792;28;21506;-69
2022/04/05 01:29:16;;;;;;;487.40;330.98;;;;;;;7.34;63.30;99328.53;687724;28;22393;-69
2022/04/05 01:29:38;;;;;;;491.50;334.50;;;;;;;7.34;63.47;99330.41;686326;28;45241;-69
2022/04/05 01:29:59;;;;;;;490.63;338.13;;;;;;;7.33;63.48;99334.09;686851;28;46172;-69
2022/04/05 01:30:20;;;;;;;489.10;341.25;;;;;;;7.31;63.56;99326.22;687433;28;22423;-68
2022/04/05 01:30:41;;;;;;;490.15;345.48;;;;;;;7.32;63.79;99330.59;687694;28;23538;-69
2022/04/05 01:31:03;;;;;;;492.38;352.88;;;;;;;7.35;63.77;99334.72;686821;28;45254;-69
2022/04/05 01:31:24;;;;;;;492.85;354.38;;;;;;;7.37;63.43;99336.22;686809;28;39076;-69
2022/04/05 01:31:46;;;;;;;490.23;347.08;;;;;;;7.37;63.68;99332.72;686513;28;22396;-69
2022/04/05 01:32:08;;;;;;;485.38;332.60;;;;;;;7.34;63.94;99330.41;686636;28;45220;-69
2022/04/05 01:32:30;;;;;;;486.45;336.13;;;;;;;7.35;63.67;99332.91;687671;28;23488;-71
2022/04/05 01:32:54;;;;;;;485.77;335.73;;;;;;;7.35;63.96;99340.09;686895;28;46310;-69
2022/04/05 01:33:15;;;;;;;487.50;333.85;;;;;;;7.35;63.67;99337.41;684863;28;91487;-69
2022/04/05 01:33:36;;;;;;;486.75;335.02;;;;;;;7.39;63.05;99339.53;687258;28;22417;-69
2022/04/05 01:33:58;;;;;;;487.33;341.63;;;;;;;7.40;63.43;99340.38;687705;28;23270;-69
2022/04/05 01:34:22;;;;;;;488.90;343.92;;;;;;;7.39;63.75;99339.53;686564;28;46311;-69
2022/04/05 01:34:43;;;;;;;486.38;331.30;;;;;;;7.37;63.86;99340.75;685312;28;90351;-69
2022/04/05 01:35:05;;;;;;;487.65;331.10;;;;;;;7.34;64.06;99336.59;687669;28;21678;-69
2022/04/05 01:35:26;;;;;;;487.70;335.17;;;;;;;7.32;64.28;99335.09;686844;28;46267;-69
2022/04/05 01:35:48;;;;;;;486.52;337.98;;;;;;;7.35;64.08;99342.78;687670;28;22381;-69
2022/04/05 01:36:21;;;;;;;490.38;345.27;;;;;;;7.35;64.16;99342.78;686085;28;44467;-69
2022/04/05 01:36:43;;;;;;;490.48;349.27;;;;;;;7.37;63.69;99341.59;682589;28;136053;-69
2022/04/05 01:37:06;;;;;;;491.58;352.67;;;;;;;7.35;63.98;99345.47;686686;28;46374;-69
2022/04/05 01:37:28;;;;;;;491.10;350.17;;;;;;;7.35;63.58;99349.00;685694;28;70261;-69
2022/04/05 01:37:49;;;;;;;489.85;348.48;;;;;;;7.33;63.92;99344.84;686710;28;44407;-69
2022/04/05 01:38:11;;;;;;;489.23;340.45;;;;;;;7.33;63.83;99345.66;687710;28;23409;-69
2022/04/05 01:38:34;;;;;;;489.42;338.90;;;;;;;7.31;63.73;99347.72;687766;28;21513;-69
2022/04/05 01:38:56;;;;;;;489.42;338.92;;;;;;;7.33;63.79;99352.91;685893;28;69432;-70
2022/04/05 01:39:20;;;;;;;488.05;333.92;;;;;;;7.34;63.60;99354.56;685893;28;69212;-69
2022/04/05 01:39:42;;;;;;;488.80;337.77;;;;;;;7.33;63.61;99345.66;684790;28;92115;-69
2022/04/05 01:40:04;;;;;;;490.50;345.25;;;;;;;7.33;63.65;99345.66;687737;28;23455;-69
2022/04/05 01:40:25;;;;;;;489.77;348.13;;;;;;;7.33;63.41;99350.22;686580;28;46328;-69
2022/04/05 01:40:47;;;;;;;488.38;340.70;;;;;;;7.32;63.54;99349.41;686193;28;23440;-69
2022/04/05 01:41:08;;;;;;;487.80;336.33;;;;;;;7.33;63.72;99355.59;684333;28;69397;-69
2022/04/05 01:41:30;;;;;;;487.35;333.25;;;;;;;7.32;63.66;99351.22;686537;28;21143;-69